Terminal Aerodrome Forecast
Issued by NWS

Home | Current Version | Previous Version | Text Only | Print | Product List | Glossary On
Versions: 1 2 3 4 5 6 7 8 9 10 11 12 13 14 15 16 17 18 19 20 21 22 23 24 25 26 27 28 29 30 31 32 33 34 35 36
000
FTUS44 KHGX 240900 AAD
TAFIAH
TAF AMD
KIAH 240900Z 2409/2512 16013G23KT P6SM BKN019 BKN035 BKN250
     FM241400 18012KT P6SM BKN020
     FM241900 17015G25KT P6SM -TSRA VCTS BKN030CB
      TEMPO 2422/2424 VRB30KT 3SM TSRA
     FM250000 20014G22KT P6SM SCT025 SCT250 PROB30 2500/2503 VRB25KT
      4SM -TSRA BKN020CB
     FM250400 19010KT P6SM VCSH BKN020 OVC250
     FM250900 22007KT P6SM OVC010=

USA.gov is the U.S. government's official web portal to all federal, state and local government web resources and services.